createdAt,value
2022-12-31T00:00:20.824Z,0.45
2022-12-31T00:02:47.809Z,0.30
2022-12-31T00:05:14.790Z,0.50
2022-12-31T00:10:08.161Z,0.40
2022-12-31T00:12:35.328Z,0.55
2022-12-31T00:15:02.361Z,0.52
2022-12-31T00:17:29.957Z,0.50
2022-12-31T00:19:56.958Z,0.32
2022-12-31T00:22:23.922Z,0.40
2022-12-31T00:24:50.723Z,0.40
2022-12-31T00:27:17.700Z,0.40
2022-12-31T00:29:45.014Z,0.50
2022-12-31T00:32:11.957Z,0.40
2022-12-31T00:34:38.779Z,0.57
2022-12-31T00:37:05.754Z,0.50
2022-12-31T00:39:33.115Z,0.40
2022-12-31T00:42:00.100Z,0.50
2022-12-31T00:44:27.110Z,0.50
2022-12-31T00:46:54.190Z,0.60
2022-12-31T00:49:21.048Z,0.60
2022-12-31T00:51:48.227Z,0.68
2022-12-31T00:54:15.251Z,0.60
2022-12-31T00:56:42.073Z,0.60
2022-12-31T00:59:08.952Z,0.50
2022-12-31T01:01:39.336Z,0.60
2022-12-31T01:04:15.052Z,0.63
2022-12-31T01:06:43.266Z,0.50
2022-12-31T01:09:11.520Z,0.50
2022-12-31T01:11:38.548Z,0.40
2022-12-31T01:14:07.197Z,0.30
2022-12-31T01:16:40.489Z,0.43
2022-12-31T01:19:11.070Z,0.38
2022-12-31T01:21:41.315Z,0.40
2022-12-31T01:24:10.748Z,0.30
2022-12-31T01:26:38.528Z,0.40
2022-12-31T01:29:06.673Z,0.30
2022-12-31T01:31:34.777Z,0.30
2022-12-31T01:34:02.217Z,0.30
2022-12-31T01:36:31.591Z,0.30
2022-12-31T01:39:00.993Z,0.30
2022-12-31T01:41:34.018Z,0.47
2022-12-31T01:44:22.252Z,0.40
2022-12-31T01:46:54.100Z,0.47
2022-12-31T01:49:27.296Z,0.38
2022-12-31T01:52:22.821Z,0.40
2022-12-31T01:55:00.330Z,0.30
2022-12-31T01:57:27.983Z,0.38
2022-12-31T01:59:56.736Z,0.38
2022-12-31T02:02:24.051Z,0.45
2022-12-31T02:04:53.603Z,0.40
2022-12-31T02:07:20.606Z,0.43
2022-12-31T02:09:47.541Z,0.40
2022-12-31T02:12:14.661Z,0.50
2022-12-31T02:14:44.720Z,0.60
2022-12-31T02:17:37.367Z,0.70
2022-12-31T02:20:25.700Z,0.77
2022-12-31T02:23:07.495Z,0.70
2022-12-31T02:25:58.528Z,0.80
2022-12-31T02:29:03.754Z,0.85
2022-12-31T02:31:37.224Z,0.80
2022-12-31T02:34:15.629Z,0.63
2022-12-31T02:36:45.706Z,1.23
2022-12-31T02:39:13.583Z,0.90
2022-12-31T02:41:52.581Z,1.00
2022-12-31T02:44:23.560Z,2.55
2022-12-31T02:47:03.013Z,1.10
2022-12-31T02:49:57.178Z,0.90
2022-12-31T02:52:51.271Z,0.90
2022-12-31T02:55:26.806Z,0.85
2022-12-31T02:57:56.226Z,0.80
2022-12-31T03:00:42.337Z,2.72
2022-12-31T03:03:10.388Z,1.00
2022-12-31T03:05:43.401Z,1.20
2022-12-31T03:08:10.461Z,1.10
2022-12-31T03:10:37.847Z,1.10
2022-12-31T03:13:04.850Z,1.13
2022-12-31T03:15:34.202Z,1.20
2022-12-31T03:18:04.934Z,1.25
2022-12-31T03:20:56.306Z,1.10
2022-12-31T03:23:27.141Z,0.90
2022-12-31T03:25:55.090Z,0.88
2022-12-31T03:28:25.014Z,0.90
2022-12-31T03:30:55.590Z,1.30
2022-12-31T03:33:22.833Z,0.82
2022-12-31T03:35:50.458Z,1.17
2022-12-31T03:38:19.292Z,1.10
2022-12-31T03:40:49.122Z,0.90
2022-12-31T03:43:16.029Z,1.13
2022-12-31T03:45:43.253Z,1.33
2022-12-31T03:48:10.753Z,1.17
2022-12-31T03:50:37.910Z,1.10
2022-12-31T03:53:05.519Z,0.90
2022-12-31T03:55:32.599Z,0.90
2022-12-31T03:58:00.207Z,1.00
2022-12-31T04:00:27.403Z,0.73
2022-12-31T04:02:54.385Z,1.10
2022-12-31T04:05:22.386Z,0.88
2022-12-31T04:07:49.526Z,0.80
2022-12-31T04:10:17.671Z,0.60
2022-12-31T04:12:45.197Z,0.75
2022-12-31T04:15:17.690Z,0.57
2022-12-31T04:17:45.233Z,0.80
2022-12-31T04:20:12.767Z,0.80
2022-12-31T04:22:39.875Z,1.05
2022-12-31T04:25:11.413Z,0.60
2022-12-31T04:27:40.144Z,0.90
2022-12-31T04:30:07.943Z,0.65
2022-12-31T04:32:34.790Z,0.75
2022-12-31T04:35:01.667Z,0.77
2022-12-31T04:37:29.101Z,0.40
2022-12-31T04:40:00.328Z,0.65
2022-12-31T04:42:30.525Z,0.60
2022-12-31T04:44:57.373Z,0.77
2022-12-31T04:47:24.273Z,0.50
2022-12-31T04:49:51.501Z,0.70
2022-12-31T04:52:18.441Z,0.50
2022-12-31T04:54:45.311Z,0.85
2022-12-31T04:57:12.305Z,0.47
2022-12-31T04:59:39.351Z,0.60
2022-12-31T05:02:06.803Z,0.50
2022-12-31T05:04:33.763Z,0.70
2022-12-31T05:07:00.928Z,0.88
2022-12-31T05:09:28.450Z,0.47
2022-12-31T05:11:55.396Z,0.50
2022-12-31T05:14:22.489Z,0.43
2022-12-31T05:16:49.334Z,0.60
2022-12-31T05:19:16.471Z,0.75
2022-12-31T05:21:43.404Z,0.80
2022-12-31T05:24:10.269Z,0.30
2022-12-31T05:26:37.149Z,0.80
2022-12-31T05:29:04.065Z,0.60
2022-12-31T05:31:30.959Z,0.63
2022-12-31T05:33:58.110Z,0.50
2022-12-31T05:36:25.042Z,0.70
2022-12-31T05:38:52.174Z,0.50
2022-12-31T05:41:19.262Z,0.60
2022-12-31T05:43:46.387Z,1.02
2022-12-31T05:46:13.421Z,0.75
2022-12-31T05:48:40.424Z,0.90
2022-12-31T05:51:07.487Z,0.70
2022-12-31T05:53:34.579Z,0.57
2022-12-31T05:56:01.638Z,0.85
2022-12-31T05:58:28.697Z,0.80
2022-12-31T06:00:55.606Z,0.75
2022-12-31T06:03:22.658Z,0.60
2022-12-31T06:05:49.703Z,0.90
2022-12-31T06:08:16.532Z,0.50
2022-12-31T06:10:43.669Z,0.73
2022-12-31T06:13:10.963Z,0.85
2022-12-31T06:15:39.719Z,0.80
2022-12-31T06:18:07.227Z,1.55
2022-12-31T06:20:36.945Z,0.88
2022-12-31T06:23:04.540Z,0.88
2022-12-31T06:25:31.580Z,0.95
2022-12-31T06:27:58.576Z,1.10
2022-12-31T06:30:25.449Z,1.25
2022-12-31T06:32:52.391Z,1.30
2022-12-31T06:35:19.214Z,1.40
2022-12-31T06:37:46.295Z,1.17
2022-12-31T06:40:13.644Z,1.30
2022-12-31T06:42:42.262Z,1.10
2022-12-31T06:45:09.521Z,0.80
2022-12-31T06:47:36.363Z,0.95
2022-12-31T06:50:03.651Z,1.08
2022-12-31T06:52:30.651Z,0.65
2022-12-31T06:54:57.808Z,0.90
2022-12-31T06:57:25.136Z,0.80
2022-12-31T06:59:52.266Z,0.77
2022-12-31T07:02:25.755Z,1.17
2022-12-31T07:05:14.455Z,1.00
2022-12-31T07:07:44.379Z,0.90
2022-12-31T07:10:36.669Z,0.98
2022-12-31T07:13:15.201Z,1.10
2022-12-31T07:16:03.172Z,0.90
2022-12-31T07:19:24.538Z,0.90
2022-12-31T07:21:54.651Z,1.05
2022-12-31T07:24:22.055Z,1.00
2022-12-31T07:27:19.875Z,1.20
2022-12-31T07:30:14.406Z,0.98
2022-12-31T07:32:56.795Z,0.80
2022-12-31T07:35:45.593Z,1.33
2022-12-31T07:38:22.575Z,1.00
2022-12-31T07:40:57.805Z,1.00
2022-12-31T07:43:48.742Z,0.90
2022-12-31T07:46:39.281Z,0.90
2022-12-31T07:49:13.686Z,0.90
2022-12-31T07:51:41.269Z,1.10
2022-12-31T07:54:13.599Z,1.00
2022-12-31T07:56:41.943Z,0.90
2022-12-31T07:59:23.908Z,1.00
2022-12-31T08:02:13.862Z,0.80
2022-12-31T08:04:56.109Z,0.82
2022-12-31T08:07:53.459Z,1.10
2022-12-31T08:10:55.874Z,0.80
2022-12-31T08:13:22.964Z,1.00
2022-12-31T08:15:50.101Z,1.00
2022-12-31T08:18:17.780Z,1.30
2022-12-31T08:21:19.885Z,1.40
2022-12-31T08:24:01.126Z,1.15
2022-12-31T08:26:52.605Z,1.17
2022-12-31T08:29:46.354Z,1.10
2022-12-31T08:32:32.283Z,1.05
2022-12-31T08:35:23.291Z,1.10
2022-12-31T08:38:19.318Z,1.52
2022-12-31T08:41:04.696Z,0.93
2022-12-31T08:44:00.459Z,1.50
2022-12-31T08:46:57.555Z,1.20
2022-12-31T08:49:28.434Z,1.50
2022-12-31T08:51:55.625Z,1.33
2022-12-31T08:54:23.084Z,1.52
2022-12-31T08:57:11.549Z,1.40
2022-12-31T08:59:47.287Z,1.25
2022-12-31T09:02:33.612Z,1.52
2022-12-31T09:05:32.251Z,0.90
2022-12-31T09:08:12.935Z,1.42
2022-12-31T09:10:59.628Z,1.65
2022-12-31T09:14:07.489Z,1.50
2022-12-31T09:16:42.614Z,1.10
2022-12-31T09:19:10.554Z,1.55
2022-12-31T09:21:38.205Z,1.50
2022-12-31T09:24:09.540Z,1.67
2022-12-31T09:26:42.745Z,1.27
2022-12-31T09:29:27.402Z,1.55
2022-12-31T09:32:04.701Z,2.15
2022-12-31T09:34:41.897Z,1.40
2022-12-31T09:37:38.425Z,1.55
2022-12-31T09:40:28.924Z,1.60
2022-12-31T09:43:07.764Z,1.65
2022-12-31T09:45:46.745Z,1.52
2022-12-31T09:48:13.584Z,1.25
2022-12-31T09:50:43.163Z,1.30
2022-12-31T09:53:16.666Z,1.40
2022-12-31T09:55:57.189Z,1.38
2022-12-31T09:58:58.949Z,1.50
2022-12-31T10:01:55.360Z,1.67
2022-12-31T10:04:56.259Z,2.10
2022-12-31T10:07:43.135Z,1.20
2022-12-31T10:10:24.651Z,1.33
2022-12-31T10:13:13.153Z,1.48
2022-12-31T10:16:10.718Z,1.70
2022-12-31T10:19:17.296Z,1.52
2022-12-31T10:22:08.243Z,1.60
2022-12-31T10:24:50.327Z,1.75
2022-12-31T10:27:17.407Z,1.27
2022-12-31T10:29:58.131Z,1.58
2022-12-31T10:32:31.696Z,1.38
2022-12-31T10:35:31.558Z,1.90
2022-12-31T10:38:21.406Z,1.40
2022-12-31T10:41:05.376Z,1.92
2022-12-31T10:44:03.046Z,1.45
2022-12-31T10:47:07.777Z,1.15
2022-12-31T10:50:08.704Z,1.38
2022-12-31T10:53:06.533Z,1.33
2022-12-31T10:55:55.157Z,1.58
2022-12-31T10:58:39.272Z,1.40
2022-12-31T11:01:33.166Z,1.42
2022-12-31T11:04:03.698Z,1.85
2022-12-31T11:06:52.282Z,1.45
2022-12-31T11:09:34.563Z,1.50
2022-12-31T11:12:24.213Z,2.10
2022-12-31T11:15:01.236Z,1.95
2022-12-31T11:17:58.590Z,1.80
2022-12-31T11:20:37.951Z,1.83
2022-12-31T11:23:50.355Z,1.60
2022-12-31T11:26:36.389Z,1.67
2022-12-31T11:29:29.010Z,2.50
2022-12-31T11:32:02.022Z,1.95
2022-12-31T11:34:37.922Z,2.70
2022-12-31T11:37:14.562Z,2.03
2022-12-31T11:39:51.472Z,2.17
2022-12-31T11:42:46.299Z,2.10
2022-12-31T11:45:22.665Z,1.60
2022-12-31T11:48:29.615Z,1.60
2022-12-31T11:51:15.926Z,1.67
2022-12-31T11:53:42.732Z,1.48
2022-12-31T11:56:21.043Z,1.80
2022-12-31T11:58:56.629Z,1.75
2022-12-31T12:01:36.366Z,1.50
2022-12-31T12:04:03.952Z,1.70
2022-12-31T12:06:33.178Z,1.80
2022-12-31T12:09:10.706Z,1.83
2022-12-31T12:11:41.893Z,1.50
2022-12-31T12:14:35.441Z,2.05
2022-12-31T12:17:06.660Z,1.88
2022-12-31T12:19:36.082Z,1.70
2022-12-31T12:22:22.995Z,2.13
2022-12-31T12:25:23.210Z,2.08
2022-12-31T12:27:50.193Z,2.15
2022-12-31T12:30:26.130Z,2.10
2022-12-31T12:32:57.589Z,2.20
2022-12-31T12:35:36.086Z,2.33
2022-12-31T12:38:13.830Z,1.77
2022-12-31T12:40:41.693Z,2.35
2022-12-31T12:43:31.965Z,2.67
2022-12-31T12:46:16.964Z,2.38
2022-12-31T12:48:47.149Z,2.92
2022-12-31T12:51:56.709Z,2.03
2022-12-31T12:55:08.671Z,2.60
2022-12-31T12:57:59.822Z,2.40
2022-12-31T13:00:46.792Z,2.25
2022-12-31T13:03:25.606Z,2.17
2022-12-31T13:06:10.767Z,2.30
2022-12-31T13:08:59.289Z,2.45
2022-12-31T13:12:07.568Z,2.30
2022-12-31T13:14:42.028Z,3.13
2022-12-31T13:17:30.175Z,2.78
2022-12-31T13:20:08.951Z,2.60
2022-12-31T13:22:46.797Z,2.45
2022-12-31T13:25:50.740Z,2.42
2022-12-31T13:28:20.081Z,2.63
2022-12-31T13:30:51.066Z,2.58
2022-12-31T13:33:25.577Z,2.00
2022-12-31T13:36:17.475Z,2.90
2022-12-31T13:38:49.999Z,2.65
2022-12-31T13:41:42.289Z,3.03
2022-12-31T13:44:15.205Z,2.47
2022-12-31T13:46:55.117Z,2.28
2022-12-31T13:49:32.210Z,2.28
2022-12-31T13:52:13.423Z,2.28
2022-12-31T13:54:58.406Z,2.80
2022-12-31T13:57:43.609Z,2.53
2022-12-31T14:00:40.150Z,2.85
2022-12-31T14:03:16.817Z,2.22
2022-12-31T14:05:48.706Z,2.22
2022-12-31T14:08:16.072Z,2.75
2022-12-31T14:11:09.467Z,2.40
2022-12-31T14:13:36.470Z,2.85
2022-12-31T14:16:21.606Z,2.40
2022-12-31T14:19:06.235Z,2.30
2022-12-31T14:22:01.709Z,2.50
2022-12-31T14:24:45.262Z,2.33
2022-12-31T14:27:23.078Z,2.45
2022-12-31T14:29:52.452Z,2.40
2022-12-31T14:32:26.027Z,2.42
2022-12-31T14:35:08.214Z,2.50
2022-12-31T14:37:54.425Z,2.65
2022-12-31T14:40:27.190Z,2.30
2022-12-31T14:43:25.126Z,2.65
2022-12-31T14:46:10.472Z,2.55
2022-12-31T14:49:06.270Z,2.70
2022-12-31T14:51:36.052Z,2.50
2022-12-31T14:54:03.153Z,2.45
2022-12-31T14:56:39.158Z,2.08
2022-12-31T14:59:26.804Z,2.50
2022-12-31T15:01:55.276Z,2.40
2022-12-31T15:05:23.793Z,2.22
2022-12-31T15:08:13.536Z,2.50
2022-12-31T15:11:16.479Z,2.67
2022-12-31T15:14:01.621Z,2.15
2022-12-31T15:17:07.567Z,2.30
2022-12-31T15:20:04.840Z,3.00
2022-12-31T15:22:46.960Z,2.20
2022-12-31T15:25:40.483Z,2.15
2022-12-31T15:28:26.794Z,2.15
2022-12-31T15:30:58.977Z,2.70
2022-12-31T15:33:42.089Z,2.13
2022-12-31T15:36:18.054Z,2.70
2022-12-31T15:38:50.630Z,2.90
2022-12-31T15:41:20.484Z,2.33
2022-12-31T15:44:01.784Z,2.40
2022-12-31T15:46:34.268Z,2.42
2022-12-31T15:49:05.802Z,2.75
2022-12-31T15:51:43.218Z,2.45
2022-12-31T15:54:22.076Z,2.30
2022-12-31T15:56:50.088Z,2.60
2022-12-31T15:59:18.882Z,2.47
2022-12-31T16:01:46.939Z,2.70
2022-12-31T16:04:28.331Z,2.05
2022-12-31T16:07:02.642Z,2.40
2022-12-31T16:09:36.048Z,2.67
2022-12-31T16:12:10.232Z,2.38
2022-12-31T16:14:40.853Z,2.55
2022-12-31T16:17:23.424Z,2.28
2022-12-31T16:19:50.304Z,3.20
2022-12-31T16:22:26.027Z,2.63
2022-12-31T16:27:50.461Z,2.80
2022-12-31T16:30:30.919Z,2.40
2022-12-31T16:33:03.582Z,2.65
2022-12-31T16:35:31.487Z,3.45
2022-12-31T16:38:13.575Z,2.50
2022-12-31T16:40:42.977Z,2.65
2022-12-31T16:43:27.532Z,2.65
2022-12-31T16:46:01.325Z,2.72
2022-12-31T16:48:28.461Z,2.45
2022-12-31T16:50:56.488Z,2.58
2022-12-31T16:53:26.995Z,2.78
2022-12-31T16:55:57.104Z,3.05
2022-12-31T16:58:34.823Z,2.28
2022-12-31T17:01:28.211Z,2.72
2022-12-31T17:03:59.902Z,2.80
2022-12-31T17:06:28.503Z,2.58
2022-12-31T17:08:59.859Z,2.10
2022-12-31T17:11:39.360Z,2.65
2022-12-31T17:14:08.165Z,2.53
2022-12-31T17:16:57.737Z,2.17
2022-12-31T17:19:51.625Z,3.40
2022-12-31T17:22:35.724Z,2.35
2022-12-31T17:25:06.760Z,2.35
2022-12-31T17:27:35.811Z,2.55
2022-12-31T17:30:21.455Z,2.15
2022-12-31T17:32:50.150Z,2.55
2022-12-31T17:35:42.075Z,2.50
2022-12-31T17:38:23.156Z,3.05
2022-12-31T17:41:04.399Z,2.33
2022-12-31T17:43:35.432Z,2.40
2022-12-31T17:46:03.870Z,3.08
2022-12-31T17:48:31.049Z,2.95
2022-12-31T17:51:00.164Z,2.90
2022-12-31T17:53:27.528Z,2.50
2022-12-31T17:55:57.250Z,2.50
2022-12-31T17:58:30.247Z,3.22
2022-12-31T18:00:58.501Z,2.42
2022-12-31T18:03:25.601Z,2.60
2022-12-31T18:05:52.422Z,2.63
2022-12-31T18:08:19.236Z,2.45
2022-12-31T18:10:46.134Z,2.83
2022-12-31T18:13:19.265Z,2.30
2022-12-31T18:15:46.399Z,2.50
2022-12-31T18:18:30.302Z,3.67
2022-12-31T18:21:00.532Z,2.33
2022-12-31T18:23:40.368Z,2.58
2022-12-31T18:26:07.321Z,2.33
2022-12-31T18:28:34.641Z,2.42
2022-12-31T18:31:01.534Z,2.67
2022-12-31T18:33:28.676Z,2.72
2022-12-31T18:36:08.908Z,2.80
2022-12-31T18:38:36.880Z,2.67
2022-12-31T18:41:04.279Z,3.67
2022-12-31T18:43:31.185Z,2.30
2022-12-31T18:45:58.271Z,3.03
2022-12-31T18:48:25.184Z,2.67
2022-12-31T18:50:52.057Z,2.47
2022-12-31T18:53:21.712Z,2.83
2022-12-31T18:55:57.046Z,2.83
2022-12-31T18:58:24.520Z,2.83
2022-12-31T19:00:52.180Z,3.00
2022-12-31T19:03:23.108Z,2.90
2022-12-31T19:05:51.945Z,3.00
2022-12-31T19:08:20.294Z,2.70
2022-12-31T19:10:49.296Z,3.10
2022-12-31T19:13:18.155Z,3.00
2022-12-31T19:15:50.194Z,3.10
2022-12-31T19:18:17.385Z,3.00
2022-12-31T19:20:44.277Z,2.92
2022-12-31T19:23:22.360Z,3.35
2022-12-31T19:25:49.843Z,2.97
2022-12-31T19:28:19.690Z,2.67
2022-12-31T19:30:46.779Z,2.40
2022-12-31T19:33:15.367Z,2.85
2022-12-31T19:35:42.764Z,3.15
2022-12-31T19:38:18.963Z,2.67
2022-12-31T19:40:47.399Z,2.53
2022-12-31T19:43:16.092Z,3.15
2022-12-31T19:45:44.414Z,2.78
2022-12-31T19:48:16.910Z,2.50
2022-12-31T19:50:47.370Z,2.70
2022-12-31T19:53:18.060Z,3.40
2022-12-31T19:55:44.890Z,2.50
2022-12-31T19:58:25.554Z,2.65
2022-12-31T20:01:01.073Z,2.80
2022-12-31T20:03:29.360Z,2.80
2022-12-31T20:06:10.387Z,3.47
2022-12-31T20:08:38.917Z,2.38
2022-12-31T20:11:11.335Z,2.30
2022-12-31T20:13:39.695Z,2.58
2022-12-31T20:16:08.477Z,2.53
2022-12-31T20:18:37.409Z,3.20
2022-12-31T20:21:08.501Z,2.70
2022-12-31T20:23:35.377Z,2.20
2022-12-31T20:26:04.989Z,2.78
2022-12-31T20:28:32.123Z,2.50
2022-12-31T20:30:59.280Z,2.95
2022-12-31T20:33:26.179Z,2.45
2022-12-31T20:35:53.066Z,2.47
2022-12-31T20:38:19.991Z,2.50
2022-12-31T20:40:47.393Z,2.80
2022-12-31T20:43:14.644Z,2.80
2022-12-31T20:45:42.033Z,2.80
2022-12-31T20:48:09.132Z,2.70
2022-12-31T20:50:36.452Z,2.72
2022-12-31T20:53:03.609Z,2.60
2022-12-31T20:55:32.293Z,2.53
2022-12-31T20:58:00.551Z,2.50
2022-12-31T21:00:27.590Z,3.00
2022-12-31T21:03:04.920Z,2.67
2022-12-31T21:05:37.882Z,2.75
2022-12-31T21:08:04.947Z,2.67
2022-12-31T21:10:31.889Z,3.03
2022-12-31T21:12:58.834Z,2.55
2022-12-31T21:15:25.686Z,2.95
2022-12-31T21:17:53.097Z,2.55
2022-12-31T21:20:20.015Z,2.47
2022-12-31T21:22:46.891Z,2.50
2022-12-31T21:25:13.781Z,2.45
2022-12-31T21:27:40.740Z,2.63
2022-12-31T21:30:18.742Z,3.05
2022-12-31T21:32:46.468Z,3.25
2022-12-31T21:38:05.188Z,2.42
2022-12-31T21:40:32.158Z,2.92
2022-12-31T21:42:59.295Z,2.85
2022-12-31T21:45:26.208Z,3.10
2022-12-31T21:48:11.695Z,2.47
2022-12-31T21:50:38.527Z,2.70
2022-12-31T21:53:05.298Z,2.85
2022-12-31T21:55:50.718Z,2.85
2022-12-31T21:58:26.865Z,3.00
2022-12-31T22:01:13.658Z,2.95
2022-12-31T22:03:40.755Z,2.90
2022-12-31T22:06:13.672Z,3.00
2022-12-31T22:08:42.533Z,2.50
2022-12-31T22:11:10.661Z,2.53
2022-12-31T22:13:38.579Z,2.78
2022-12-31T22:16:06.682Z,2.90
2022-12-31T22:18:41.367Z,2.85
2022-12-31T22:21:18.923Z,2.42
2022-12-31T22:23:48.835Z,2.85
2022-12-31T22:26:17.711Z,3.13
2022-12-31T22:28:46.274Z,2.50
2022-12-31T22:31:17.345Z,2.55
2022-12-31T22:33:44.992Z,2.67
2022-12-31T22:36:17.740Z,2.95
2022-12-31T22:38:45.645Z,2.20
2022-12-31T22:41:15.824Z,2.70
2022-12-31T22:43:45.700Z,2.55
2022-12-31T22:46:15.351Z,2.38
2022-12-31T22:48:42.901Z,2.13
2022-12-31T22:51:11.167Z,2.70
2022-12-31T22:53:39.916Z,2.47
2022-12-31T22:56:08.016Z,2.60
2022-12-31T22:58:35.275Z,2.72
2022-12-31T23:01:14.248Z,2.72
2022-12-31T23:03:44.433Z,2.55
2022-12-31T23:06:11.486Z,2.63
2022-12-31T23:08:38.881Z,2.90
2022-12-31T23:11:09.378Z,2.70
2022-12-31T23:13:58.468Z,2.78
2022-12-31T23:16:46.898Z,2.90
2022-12-31T23:19:34.019Z,2.38
2022-12-31T23:22:19.545Z,2.58
2022-12-31T23:24:46.365Z,2.63
2022-12-31T23:27:13.294Z,2.25
2022-12-31T23:29:46.610Z,2.22
2022-12-31T23:32:18.998Z,2.70
2022-12-31T23:34:46.922Z,2.58
2022-12-31T23:37:15.632Z,3.47
2022-12-31T23:39:43.160Z,2.80
2022-12-31T23:42:09.982Z,2.35
2022-12-31T23:44:36.947Z,2.40
2022-12-31T23:47:04.266Z,2.92
2022-12-31T23:49:31.316Z,2.80
2022-12-31T23:51:58.166Z,2.33
2022-12-31T23:54:24.998Z,2.60
2022-12-31T23:56:51.848Z,2.45
2022-12-31T23:59:18.721Z,2.60
